sensor_id;sensor_type;location;lat;lon;timestamp;temperature;humidity
16958;DHT22;8595;52.542;11.974;2023-05-15T00:02:04;16.50;99.90
16958;DHT22;8595;52.542;11.974;2023-05-15T00:04:31;16.50;99.90
16958;DHT22;8595;52.542;11.974;2023-05-15T00:06:59;16.50;99.90
16958;DHT22;8595;52.542;11.974;2023-05-15T00:09:26;16.50;99.90
16958;DHT22;8595;52.542;11.974;2023-05-15T00:11:52;16.40;99.90
16958;DHT22;8595;52.542;11.974;2023-05-15T00:14:19;16.40;99.90
16958;DHT22;8595;52.542;11.974;2023-05-15T00:16:46;16.40;99.90
16958;DHT22;8595;52.542;11.974;2023-05-15T00:19:13;16.30;99.90
16958;DHT22;8595;52.542;11.974;2023-05-15T00:21:40;16.30;99.90
16958;DHT22;8595;52.542;11.974;2023-05-15T00:24:08;16.20;99.90
16958;DHT22;8595;52.542;11.974;2023-05-15T00:26:35;16.20;99.90
16958;DHT22;8595;52.542;11.974;2023-05-15T00:29:02;16.20;99.90
16958;DHT22;8595;52.542;11.974;2023-05-15T00:31:29;16.10;99.90
16958;DHT22;8595;52.542;11.974;2023-05-15T00:33:56;16.00;99.90
16958;DHT22;8595;52.542;11.974;2023-05-15T00:36:23;16.00;99.90
16958;DHT22;8595;52.542;11.974;2023-05-15T00:38:50;16.00;99.90
16958;DHT22;8595;52.542;11.974;2023-05-15T00:41:21;15.80;99.90
16958;DHT22;8595;52.542;11.974;2023-05-15T00:43:49;15.70;99.90
16958;DHT22;8595;52.542;11.974;2023-05-15T00:46:16;15.70;99.90
16958;DHT22;8595;52.542;11.974;2023-05-15T00:48:43;15.60;99.90
16958;DHT22;8595;52.542;11.974;2023-05-15T00:51:11;15.50;99.90
16958;DHT22;8595;52.542;11.974;2023-05-15T00:53:38;15.50;99.90
16958;DHT22;8595;52.542;11.974;2023-05-15T00:56:06;15.50;99.90
16958;DHT22;8595;52.542;11.974;2023-05-15T00:58:37;15.40;99.90
16958;DHT22;8595;52.542;11.974;2023-05-15T01:01:05;15.30;99.90
16958;DHT22;8595;52.542;11.974;2023-05-15T01:03:31;15.40;99.90
16958;DHT22;8595;52.542;11.974;2023-05-15T01:05:58;15.50;99.90
16958;DHT22;8595;52.542;11.974;2023-05-15T01:08:28;15.40;99.90
16958;DHT22;8595;52.542;11.974;2023-05-15T01:10:58;15.50;99.90
16958;DHT22;8595;52.542;11.974;2023-05-15T01:13:25;15.50;99.90
16958;DHT22;8595;52.542;11.974;2023-05-15T01:15:54;15.50;99.90
16958;DHT22;8595;52.542;11.974;2023-05-15T01:18:21;15.50;99.90
16958;DHT22;8595;52.542;11.974;2023-05-15T01:21:01;15.50;99.90
16958;DHT22;8595;52.542;11.974;2023-05-15T01:23:38;15.40;99.90
16958;DHT22;8595;52.542;11.974;2023-05-15T01:29:08;15.40;99.90
16958;DHT22;8595;52.542;11.974;2023-05-15T01:31:37;15.30;99.90
16958;DHT22;8595;52.542;11.974;2023-05-15T01:34:08;15.40;99.90
16958;DHT22;8595;52.542;11.974;2023-05-15T01:36:38;15.30;99.90
16958;DHT22;8595;52.542;11.974;2023-05-15T01:39:10;15.20;99.90
16958;DHT22;8595;52.542;11.974;2023-05-15T01:41:43;15.00;99.90
16958;DHT22;8595;52.542;11.974;2023-05-15T01:44:15;14.80;99.90
16958;DHT22;8595;52.542;11.974;2023-05-15T01:46:45;14.50;99.90
16958;DHT22;8595;52.542;11.974;2023-05-15T01:49:17;14.40;99.90
16958;DHT22;8595;52.542;11.974;2023-05-15T01:51:46;14.20;99.90
16958;DHT22;8595;52.542;11.974;2023-05-15T01:54:14;14.10;99.90
16958;DHT22;8595;52.542;11.974;2023-05-15T01:56:42;14.00;99.90
16958;DHT22;8595;52.542;11.974;2023-05-15T01:59:12;14.00;99.90
16958;DHT22;8595;52.542;11.974;2023-05-15T02:01:40;13.90;99.90
16958;DHT22;8595;52.542;11.974;2023-05-15T02:04:08;13.90;99.90
16958;DHT22;8595;52.542;11.974;2023-05-15T02:06:37;13.80;99.90
16958;DHT22;8595;52.542;11.974;2023-05-15T02:09:05;13.80;99.90
16958;DHT22;8595;52.542;11.974;2023-05-15T02:11:33;13.80;99.90
16958;DHT22;8595;52.542;11.974;2023-05-15T02:14:00;13.90;99.90
16958;DHT22;8595;52.542;11.974;2023-05-15T02:16:29;13.90;99.90
16958;DHT22;8595;52.542;11.974;2023-05-15T02:18:55;13.80;99.90
16958;DHT22;8595;52.542;11.974;2023-05-15T02:21:22;13.70;99.90
16958;DHT22;8595;52.542;11.974;2023-05-15T02:23:49;13.50;99.90
16958;DHT22;8595;52.542;11.974;2023-05-15T02:26:25;13.50;99.90
16958;DHT22;8595;52.542;11.974;2023-05-15T02:29:05;13.40;99.90
16958;DHT22;8595;52.542;11.974;2023-05-15T02:31:38;13.30;99.90
16958;DHT22;8595;52.542;11.974;2023-05-15T02:34:14;13.20;99.90
16958;DHT22;8595;52.542;11.974;2023-05-15T02:36:46;13.30;99.90
16958;DHT22;8595;52.542;11.974;2023-05-15T02:39:14;13.40;99.90
16958;DHT22;8595;52.542;11.974;2023-05-15T02:41:42;13.50;99.90
16958;DHT22;8595;52.542;11.974;2023-05-15T02:44:11;13.40;99.90
16958;DHT22;8595;52.542;11.974;2023-05-15T02:46:41;13.40;99.90
16958;DHT22;8595;52.542;11.974;2023-05-15T02:49:07;13.40;99.90
16958;DHT22;8595;52.542;11.974;2023-05-15T02:51:35;13.40;99.90
16958;DHT22;8595;52.542;11.974;2023-05-15T02:54:03;13.30;99.90
16958;DHT22;8595;52.542;11.974;2023-05-15T02:56:30;13.20;99.90
16958;DHT22;8595;52.542;11.974;2023-05-15T02:58:58;13.10;99.90
16958;DHT22;8595;52.542;11.974;2023-05-15T03:01:24;13.00;99.90
16958;DHT22;8595;52.542;11.974;2023-05-15T03:03:53;12.90;99.90
16958;DHT22;8595;52.542;11.974;2023-05-15T03:06:20;12.90;99.90
16958;DHT22;8595;52.542;11.974;2023-05-15T03:08:46;12.90;99.90
16958;DHT22;8595;52.542;11.974;2023-05-15T03:11:13;12.90;99.90
16958;DHT22;8595;52.542;11.974;2023-05-15T03:13:40;12.80;99.90
16958;DHT22;8595;52.542;11.974;2023-05-15T03:16:07;12.90;99.90
16958;DHT22;8595;52.542;11.974;2023-05-15T03:18:34;12.60;99.90
16958;DHT22;8595;52.542;11.974;2023-05-15T03:21:02;12.50;99.90
16958;DHT22;8595;52.542;11.974;2023-05-15T03:23:29;12.50;99.90
16958;DHT22;8595;52.542;11.974;2023-05-15T03:25:56;12.50;99.90
16958;DHT22;8595;52.542;11.974;2023-05-15T03:28:23;12.60;99.90
16958;DHT22;8595;52.542;11.974;2023-05-15T03:30:50;12.50;99.90
16958;DHT22;8595;52.542;11.974;2023-05-15T03:33:16;12.50;99.90
16958;DHT22;8595;52.542;11.974;2023-05-15T03:35:43;12.50;99.90
16958;DHT22;8595;52.542;11.974;2023-05-15T03:38:12;12.60;99.90
16958;DHT22;8595;52.542;11.974;2023-05-15T03:40:38;12.80;99.90
16958;DHT22;8595;52.542;11.974;2023-05-15T03:43:05;12.80;99.90
16958;DHT22;8595;52.542;11.974;2023-05-15T03:45:32;13.00;99.90
16958;DHT22;8595;52.542;11.974;2023-05-15T03:47:59;13.10;99.90
16958;DHT22;8595;52.542;11.974;2023-05-15T03:50:26;13.10;99.90
16958;DHT22;8595;52.542;11.974;2023-05-15T03:52:53;13.10;99.90
16958;DHT22;8595;52.542;11.974;2023-05-15T03:55:21;13.10;99.90
16958;DHT22;8595;52.542;11.974;2023-05-15T03:57:48;13.10;99.90
16958;DHT22;8595;52.542;11.974;2023-05-15T04:00:15;13.20;99.90
16958;DHT22;8595;52.542;11.974;2023-05-15T04:02:42;13.30;99.90
16958;DHT22;8595;52.542;11.974;2023-05-15T04:05:09;13.30;99.90
16958;DHT22;8595;52.542;11.974;2023-05-15T04:07:36;13.20;99.90
16958;DHT22;8595;52.542;11.974;2023-05-15T04:10:04;13.30;99.90
16958;DHT22;8595;52.542;11.974;2023-05-15T04:12:33;13.50;99.90
16958;DHT22;8595;52.542;11.974;2023-05-15T04:15:13;13.70;99.90
16958;DHT22;8595;52.542;11.974;2023-05-15T04:17:40;13.80;99.90
16958;DHT22;8595;52.542;11.974;2023-05-15T04:20:09;13.90;99.90
16958;DHT22;8595;52.542;11.974;2023-05-15T04:22:36;13.90;99.90
16958;DHT22;8595;52.542;11.974;2023-05-15T04:25:03;13.90;99.90
16958;DHT22;8595;52.542;11.974;2023-05-15T04:27:32;13.90;99.90
16958;DHT22;8595;52.542;11.974;2023-05-15T04:29:59;13.90;99.90
16958;DHT22;8595;52.542;11.974;2023-05-15T04:32:27;14.00;99.90
16958;DHT22;8595;52.542;11.974;2023-05-15T04:34:54;14.10;99.90
16958;DHT22;8595;52.542;11.974;2023-05-15T04:37:21;14.10;99.90
16958;DHT22;8595;52.542;11.974;2023-05-15T04:39:47;14.20;99.90
16958;DHT22;8595;52.542;11.974;2023-05-15T04:42:14;14.30;99.90
16958;DHT22;8595;52.542;11.974;2023-05-15T04:44:42;14.40;99.90
16958;DHT22;8595;52.542;11.974;2023-05-15T04:47:09;14.60;99.90
16958;DHT22;8595;52.542;11.974;2023-05-15T04:49:36;14.80;99.90
16958;DHT22;8595;52.542;11.974;2023-05-15T04:52:03;14.90;99.90
16958;DHT22;8595;52.542;11.974;2023-05-15T04:54:30;15.00;99.90
16958;DHT22;8595;52.542;11.974;2023-05-15T04:56:57;15.10;99.90
16958;DHT22;8595;52.542;11.974;2023-05-15T04:59:24;15.20;99.90
16958;DHT22;8595;52.542;11.974;2023-05-15T05:01:54;15.20;99.90
16958;DHT22;8595;52.542;11.974;2023-05-15T05:04:21;15.10;99.90
16958;DHT22;8595;52.542;11.974;2023-05-15T05:06:48;15.00;99.90
16958;DHT22;8595;52.542;11.974;2023-05-15T05:09:15;14.80;99.90
16958;DHT22;8595;52.542;11.974;2023-05-15T05:11:41;14.60;99.90
16958;DHT22;8595;52.542;11.974;2023-05-15T05:14:09;14.60;99.90
16958;DHT22;8595;52.542;11.974;2023-05-15T05:16:36;14.50;99.90
16958;DHT22;8595;52.542;11.974;2023-05-15T05:19:04;14.60;99.90
16958;DHT22;8595;52.542;11.974;2023-05-15T05:21:32;14.70;99.90
16958;DHT22;8595;52.542;11.974;2023-05-15T05:23:58;14.80;99.90
16958;DHT22;8595;52.542;11.974;2023-05-15T05:26:25;14.90;99.90
16958;DHT22;8595;52.542;11.974;2023-05-15T05:28:52;15.00;99.90
16958;DHT22;8595;52.542;11.974;2023-05-15T05:31:19;15.00;99.90
16958;DHT22;8595;52.542;11.974;2023-05-15T05:33:47;15.20;99.90
16958;DHT22;8595;52.542;11.974;2023-05-15T05:36:17;15.20;99.90
16958;DHT22;8595;52.542;11.974;2023-05-15T05:38:43;15.20;99.90
16958;DHT22;8595;52.542;11.974;2023-05-15T05:41:10;15.30;99.90
16958;DHT22;8595;52.542;11.974;2023-05-15T05:43:38;15.40;99.90
16958;DHT22;8595;52.542;11.974;2023-05-15T05:46:04;15.40;99.90
16958;DHT22;8595;52.542;11.974;2023-05-15T05:48:31;15.30;99.90
16958;DHT22;8595;52.542;11.974;2023-05-15T05:50:59;15.40;99.90
16958;DHT22;8595;52.542;11.974;2023-05-15T05:53:27;15.50;99.90
16958;DHT22;8595;52.542;11.974;2023-05-15T05:55:53;15.60;99.90
16958;DHT22;8595;52.542;11.974;2023-05-15T05:58:20;15.60;99.90
16958;DHT22;8595;52.542;11.974;2023-05-15T06:00:47;15.50;99.90
16958;DHT22;8595;52.542;11.974;2023-05-15T06:03:14;15.60;99.90
16958;DHT22;8595;52.542;11.974;2023-05-15T06:05:40;15.60;99.90
16958;DHT22;8595;52.542;11.974;2023-05-15T06:08:07;15.60;99.90
16958;DHT22;8595;52.542;11.974;2023-05-15T06:10:35;15.80;99.90
16958;DHT22;8595;52.542;11.974;2023-05-15T06:13:02;15.90;99.90
16958;DHT22;8595;52.542;11.974;2023-05-15T06:15:29;15.80;99.90
16958;DHT22;8595;52.542;11.974;2023-05-15T06:17:56;15.70;99.90
16958;DHT22;8595;52.542;11.974;2023-05-15T06:20:23;15.80;99.90
16958;DHT22;8595;52.542;11.974;2023-05-15T06:22:49;15.80;99.90
16958;DHT22;8595;52.542;11.974;2023-05-15T06:25:16;15.80;99.90
16958;DHT22;8595;52.542;11.974;2023-05-15T06:27:44;16.00;99.90
16958;DHT22;8595;52.542;11.974;2023-05-15T06:30:12;16.30;99.90
16958;DHT22;8595;52.542;11.974;2023-05-15T06:32:39;16.40;99.90
16958;DHT22;8595;52.542;11.974;2023-05-15T06:35:08;16.50;99.90
16958;DHT22;8595;52.542;11.974;2023-05-15T06:37:36;16.50;99.90
16958;DHT22;8595;52.542;11.974;2023-05-15T06:40:03;16.60;99.90
16958;DHT22;8595;52.542;11.974;2023-05-15T06:42:30;16.60;99.90
16958;DHT22;8595;52.542;11.974;2023-05-15T06:44:58;16.70;99.90
16958;DHT22;8595;52.542;11.974;2023-05-15T06:47:25;16.70;99.90
16958;DHT22;8595;52.542;11.974;2023-05-15T06:49:53;16.70;99.90
16958;DHT22;8595;52.542;11.974;2023-05-15T06:52:19;16.70;99.90
16958;DHT22;8595;52.542;11.974;2023-05-15T06:54:46;16.90;99.90
16958;DHT22;8595;52.542;11.974;2023-05-15T06:57:13;17.20;99.90
16958;DHT22;8595;52.542;11.974;2023-05-15T06:59:40;17.40;99.90
16958;DHT22;8595;52.542;11.974;2023-05-15T07:02:08;17.60;99.90
16958;DHT22;8595;52.542;11.974;2023-05-15T07:04:34;17.50;99.90
16958;DHT22;8595;52.542;11.974;2023-05-15T07:07:01;17.40;99.90
16958;DHT22;8595;52.542;11.974;2023-05-15T07:09:28;17.40;99.90
16958;DHT22;8595;52.542;11.974;2023-05-15T07:11:55;17.60;99.90
16958;DHT22;8595;52.542;11.974;2023-05-15T07:14:22;17.70;99.90
16958;DHT22;8595;52.542;11.974;2023-05-15T07:16:48;17.90;99.90
16958;DHT22;8595;52.542;11.974;2023-05-15T07:19:18;18.10;99.90
16958;DHT22;8595;52.542;11.974;2023-05-15T07:21:46;18.30;99.90
16958;DHT22;8595;52.542;11.974;2023-05-15T07:24:12;18.40;99.90
16958;DHT22;8595;52.542;11.974;2023-05-15T07:26:39;18.40;99.90
16958;DHT22;8595;52.542;11.974;2023-05-15T07:29:06;18.50;99.90
16958;DHT22;8595;52.542;11.974;2023-05-15T07:31:32;18.50;99.90
16958;DHT22;8595;52.542;11.974;2023-05-15T07:33:59;18.30;99.90
16958;DHT22;8595;52.542;11.974;2023-05-15T07:36:28;18.20;99.90
16958;DHT22;8595;52.542;11.974;2023-05-15T07:38:54;18.20;99.90
16958;DHT22;8595;52.542;11.974;2023-05-15T07:41:21;18.40;99.90
16958;DHT22;8595;52.542;11.974;2023-05-15T07:43:48;18.40;99.90
16958;DHT22;8595;52.542;11.974;2023-05-15T07:46:14;18.60;99.90
16958;DHT22;8595;52.542;11.974;2023-05-15T07:48:41;18.80;99.90
16958;DHT22;8595;52.542;11.974;2023-05-15T07:51:08;18.80;99.90
16958;DHT22;8595;52.542;11.974;2023-05-15T07:53:36;19.00;99.90
16958;DHT22;8595;52.542;11.974;2023-05-15T07:56:03;19.10;99.90
16958;DHT22;8595;52.542;11.974;2023-05-15T07:58:30;19.20;99.90
16958;DHT22;8595;52.542;11.974;2023-05-15T08:00:59;19.40;99.90
16958;DHT22;8595;52.542;11.974;2023-05-15T08:03:26;19.60;99.90
16958;DHT22;8595;52.542;11.974;2023-05-15T08:05:53;19.70;99.90
16958;DHT22;8595;52.542;11.974;2023-05-15T08:08:20;19.70;99.90
16958;DHT22;8595;52.542;11.974;2023-05-15T08:10:48;19.60;99.90
16958;DHT22;8595;52.542;11.974;2023-05-15T08:13:15;19.70;99.90
16958;DHT22;8595;52.542;11.974;2023-05-15T08:15:42;19.70;99.90
16958;DHT22;8595;52.542;11.974;2023-05-15T08:18:09;19.80;99.90
16958;DHT22;8595;52.542;11.974;2023-05-15T08:20:36;20.00;99.90
16958;DHT22;8595;52.542;11.974;2023-05-15T08:23:03;20.20;99.90
16958;DHT22;8595;52.542;11.974;2023-05-15T08:25:29;20.40;99.90
16958;DHT22;8595;52.542;11.974;2023-05-15T08:27:57;20.50;99.90
16958;DHT22;8595;52.542;11.974;2023-05-15T08:30:24;20.40;99.90
16958;DHT22;8595;52.542;11.974;2023-05-15T08:32:51;20.50;99.90
16958;DHT22;8595;52.542;11.974;2023-05-15T08:35:18;20.60;99.90
16958;DHT22;8595;52.542;11.974;2023-05-15T08:37:44;20.70;99.90
16958;DHT22;8595;52.542;11.974;2023-05-15T08:40:12;21.00;99.90
16958;DHT22;8595;52.542;11.974;2023-05-15T08:42:42;21.20;99.90
16958;DHT22;8595;52.542;11.974;2023-05-15T08:45:12;21.40;99.90
16958;DHT22;8595;52.542;11.974;2023-05-15T08:47:40;21.70;99.90
16958;DHT22;8595;52.542;11.974;2023-05-15T08:50:08;22.20;99.90
16958;DHT22;8595;52.542;11.974;2023-05-15T08:52:37;22.70;99.90
16958;DHT22;8595;52.542;11.974;2023-05-15T08:55:06;23.10;99.90
16958;DHT22;8595;52.542;11.974;2023-05-15T08:57:33;23.30;99.90
16958;DHT22;8595;52.542;11.974;2023-05-15T09:00:01;23.80;99.90
16958;DHT22;8595;52.542;11.974;2023-05-15T09:02:30;23.90;99.90
16958;DHT22;8595;52.542;11.974;2023-05-15T09:04:57;23.70;99.90
16958;DHT22;8595;52.542;11.974;2023-05-15T09:07:24;24.60;99.90
16958;DHT22;8595;52.542;11.974;2023-05-15T09:09:51;25.50;99.90
16958;DHT22;8595;52.542;11.974;2023-05-15T09:12:19;26.00;99.90
16958;DHT22;8595;52.542;11.974;2023-05-15T09:14:47;26.00;99.90
16958;DHT22;8595;52.542;11.974;2023-05-15T09:17:14;26.30;99.90
16958;DHT22;8595;52.542;11.974;2023-05-15T09:19:43;26.30;99.90
16958;DHT22;8595;52.542;11.974;2023-05-15T09:22:14;25.70;99.90
16958;DHT22;8595;52.542;11.974;2023-05-15T09:24:44;25.60;99.90
16958;DHT22;8595;52.542;11.974;2023-05-15T09:27:12;24.80;99.90
16958;DHT22;8595;52.542;11.974;2023-05-15T09:29:39;25.20;99.90
16958;DHT22;8595;52.542;11.974;2023-05-15T09:32:08;24.80;99.90
16958;DHT22;8595;52.542;11.974;2023-05-15T09:34:36;25.10;99.90
16958;DHT22;8595;52.542;11.974;2023-05-15T09:37:06;25.10;99.90
16958;DHT22;8595;52.542;11.974;2023-05-15T09:39:33;25.20;99.90
16958;DHT22;8595;52.542;11.974;2023-05-15T09:42:07;25.90;99.90
16958;DHT22;8595;52.542;11.974;2023-05-15T09:44:34;26.30;99.90
16958;DHT22;8595;52.542;11.974;2023-05-15T09:47:04;26.30;99.90
16958;DHT22;8595;52.542;11.974;2023-05-15T09:49:31;26.60;99.90
16958;DHT22;8595;52.542;11.974;2023-05-15T09:51:59;26.50;99.90
16958;DHT22;8595;52.542;11.974;2023-05-15T09:54:28;26.10;99.90
16958;DHT22;8595;52.542;11.974;2023-05-15T09:56:56;26.30;99.90
16958;DHT22;8595;52.542;11.974;2023-05-15T09:59:32;25.60;99.90
16958;DHT22;8595;52.542;11.974;2023-05-15T10:01:59;25.70;99.90
16958;DHT22;8595;52.542;11.974;2023-05-15T10:04:25;26.20;99.90
16958;DHT22;8595;52.542;11.974;2023-05-15T10:06:52;26.50;99.90
16958;DHT22;8595;52.542;11.974;2023-05-15T10:09:19;26.70;99.50
16958;DHT22;8595;52.542;11.974;2023-05-15T10:11:50;26.90;99.90
16958;DHT22;8595;52.542;11.974;2023-05-15T10:14:17;27.10;98.80
16958;DHT22;8595;52.542;11.974;2023-05-15T10:16:45;26.00;99.00
16958;DHT22;8595;52.542;11.974;2023-05-15T10:19:12;25.40;99.90
16958;DHT22;8595;52.542;11.974;2023-05-15T10:21:40;25.10;99.90
16958;DHT22;8595;52.542;11.974;2023-05-15T10:24:08;24.80;99.90
16958;DHT22;8595;52.542;11.974;2023-05-15T10:26:36;24.40;99.90
16958;DHT22;8595;52.542;11.974;2023-05-15T10:29:07;23.80;99.90
16958;DHT22;8595;52.542;11.974;2023-05-15T10:31:35;23.40;99.90
16958;DHT22;8595;52.542;11.974;2023-05-15T10:34:02;24.20;99.90
16958;DHT22;8595;52.542;11.974;2023-05-15T10:36:30;25.10;99.90
16958;DHT22;8595;52.542;11.974;2023-05-15T10:38:59;25.80;99.90
16958;DHT22;8595;52.542;11.974;2023-05-15T10:41:28;26.60;99.90
16958;DHT22;8595;52.542;11.974;2023-05-15T10:43:57;26.50;99.40
16958;DHT22;8595;52.542;11.974;2023-05-15T10:46:29;27.10;99.50
16958;DHT22;8595;52.542;11.974;2023-05-15T10:48:56;27.40;99.10
16958;DHT22;8595;52.542;11.974;2023-05-15T10:51:24;27.60;99.20
16958;DHT22;8595;52.542;11.974;2023-05-15T10:53:52;27.10;98.40
16958;DHT22;8595;52.542;11.974;2023-05-15T10:56:19;25.90;98.00
16958;DHT22;8595;52.542;11.974;2023-05-15T10:58:47;25.00;99.90
16958;DHT22;8595;52.542;11.974;2023-05-15T11:01:28;24.40;99.90
16958;DHT22;8595;52.542;11.974;2023-05-15T11:04:07;23.90;99.90
16958;DHT22;8595;52.542;11.974;2023-05-15T11:06:34;23.50;99.90
16958;DHT22;8595;52.542;11.974;2023-05-15T11:09:36;23.60;99.90
16958;DHT22;8595;52.542;11.974;2023-05-15T11:12:07;23.50;99.90
16958;DHT22;8595;52.542;11.974;2023-05-15T11:14:36;23.50;99.90
16958;DHT22;8595;52.542;11.974;2023-05-15T11:17:08;23.50;99.80
16958;DHT22;8595;52.542;11.974;2023-05-15T11:19:55;23.40;99.90
16958;DHT22;8595;52.542;11.974;2023-05-15T11:22:31;23.20;99.90
16958;DHT22;8595;52.542;11.974;2023-05-15T11:25:01;23.00;99.90
16958;DHT22;8595;52.542;11.974;2023-05-15T11:27:30;22.70;99.90
16958;DHT22;8595;52.542;11.974;2023-05-15T11:30:05;22.70;99.90
16958;DHT22;8595;52.542;11.974;2023-05-15T11:32:42;22.70;99.90
16958;DHT22;8595;52.542;11.974;2023-05-15T11:35:09;22.80;99.90
16958;DHT22;8595;52.542;11.974;2023-05-15T11:37:37;22.80;99.90
16958;DHT22;8595;52.542;11.974;2023-05-15T11:40:04;22.70;99.90
16958;DHT22;8595;52.542;11.974;2023-05-15T11:42:32;22.80;99.90
16958;DHT22;8595;52.542;11.974;2023-05-15T11:44:59;22.80;99.90
16958;DHT22;8595;52.542;11.974;2023-05-15T11:47:28;23.10;99.90
16958;DHT22;8595;52.542;11.974;2023-05-15T11:49:56;23.40;99.90
16958;DHT22;8595;52.542;11.974;2023-05-15T11:52:23;23.50;99.90
16958;DHT22;8595;52.542;11.974;2023-05-15T11:54:52;24.10;99.90
16958;DHT22;8595;52.542;11.974;2023-05-15T11:57:19;24.30;99.90
16958;DHT22;8595;52.542;11.974;2023-05-15T11:59:46;24.50;99.90
16958;DHT22;8595;52.542;11.974;2023-05-15T12:02:13;25.00;99.90
16958;DHT22;8595;52.542;11.974;2023-05-15T12:04:42;26.00;99.90
16958;DHT22;8595;52.542;11.974;2023-05-15T12:07:11;27.00;99.90
16958;DHT22;8595;52.542;11.974;2023-05-15T12:09:38;26.60;99.40
16958;DHT22;8595;52.542;11.974;2023-05-15T12:12:11;25.90;99.30
16958;DHT22;8595;52.542;11.974;2023-05-15T12:14:38;25.50;97.50
16958;DHT22;8595;52.542;11.974;2023-05-15T12:17:05;25.10;98.00
16958;DHT22;8595;52.542;11.974;2023-05-15T12:19:33;25.00;96.50
16958;DHT22;8595;52.542;11.974;2023-05-15T12:22:03;25.30;96.10
16958;DHT22;8595;52.542;11.974;2023-05-15T12:24:31;26.40;95.90
16958;DHT22;8595;52.542;11.974;2023-05-15T12:27:01;26.90;96.30
16958;DHT22;8595;52.542;11.974;2023-05-15T12:29:28;27.00;95.50
16958;DHT22;8595;52.542;11.974;2023-05-15T12:31:55;27.20;95.80
16958;DHT22;8595;52.542;11.974;2023-05-15T12:34:22;27.80;95.10
16958;DHT22;8595;52.542;11.974;2023-05-15T12:36:50;27.90;93.90
16958;DHT22;8595;52.542;11.974;2023-05-15T12:39:17;28.00;94.20
16958;DHT22;8595;52.542;11.974;2023-05-15T12:41:45;28.10;92.70
16958;DHT22;8595;52.542;11.974;2023-05-15T12:44:15;28.10;92.20
16958;DHT22;8595;52.542;11.974;2023-05-15T12:46:42;28.10;91.80
16958;DHT22;8595;52.542;11.974;2023-05-15T12:49:09;27.40;92.50
16958;DHT22;8595;52.542;11.974;2023-05-15T12:51:41;27.20;92.90
16958;DHT22;8595;52.542;11.974;2023-05-15T12:54:16;27.50;88.90
16958;DHT22;8595;52.542;11.974;2023-05-15T12:56:46;27.60;87.60
16958;DHT22;8595;52.542;11.974;2023-05-15T12:59:13;28.00;87.90
16958;DHT22;8595;52.542;11.974;2023-05-15T13:01:40;28.00;87.90
16958;DHT22;8595;52.542;11.974;2023-05-15T13:04:08;27.80;88.70
16958;DHT22;8595;52.542;11.974;2023-05-15T13:06:37;28.30;90.90
16958;DHT22;8595;52.542;11.974;2023-05-15T13:09:04;28.30;92.50
16958;DHT22;8595;52.542;11.974;2023-05-15T13:11:32;28.20;93.90
16958;DHT22;8595;52.542;11.974;2023-05-15T13:14:07;28.00;93.70
16958;DHT22;8595;52.542;11.974;2023-05-15T13:16:35;27.70;94.00
16958;DHT22;8595;52.542;11.974;2023-05-15T13:19:02;27.20;92.90
16958;DHT22;8595;52.542;11.974;2023-05-15T13:21:29;27.10;92.50
16958;DHT22;8595;52.542;11.974;2023-05-15T13:23:56;26.90;92.70
16958;DHT22;8595;52.542;11.974;2023-05-15T13:26:23;25.60;94.20
16958;DHT22;8595;52.542;11.974;2023-05-15T13:28:50;25.30;95.90
16958;DHT22;8595;52.542;11.974;2023-05-15T13:31:18;25.50;96.60
16958;DHT22;8595;52.542;11.974;2023-05-15T13:33:45;26.10;94.80
16958;DHT22;8595;52.542;11.974;2023-05-15T13:36:12;25.70;96.60
16958;DHT22;8595;52.542;11.974;2023-05-15T13:38:39;26.50;97.40
16958;DHT22;8595;52.542;11.974;2023-05-15T13:41:05;27.80;93.00
16958;DHT22;8595;52.542;11.974;2023-05-15T13:43:33;28.00;90.40
16958;DHT22;8595;52.542;11.974;2023-05-15T13:46:01;28.20;94.20
16958;DHT22;8595;52.542;11.974;2023-05-15T13:48:29;27.20;95.50
16958;DHT22;8595;52.542;11.974;2023-05-15T13:50:56;26.70;96.40
16958;DHT22;8595;52.542;11.974;2023-05-15T13:53:22;25.80;96.60
16958;DHT22;8595;52.542;11.974;2023-05-15T13:55:49;25.60;97.50
16958;DHT22;8595;52.542;11.974;2023-05-15T13:58:16;25.90;98.60
16958;DHT22;8595;52.542;11.974;2023-05-15T14:00:44;26.90;97.00
16958;DHT22;8595;52.542;11.974;2023-05-15T14:03:10;27.00;97.10
16958;DHT22;8595;52.542;11.974;2023-05-15T14:05:39;26.90;92.10
16958;DHT22;8595;52.542;11.974;2023-05-15T14:08:06;26.20;90.70
16958;DHT22;8595;52.542;11.974;2023-05-15T14:10:32;26.00;91.80
16958;DHT22;8595;52.542;11.974;2023-05-15T14:13:01;25.70;91.80
16958;DHT22;8595;52.542;11.974;2023-05-15T14:15:28;25.40;92.00
16958;DHT22;8595;52.542;11.974;2023-05-15T14:17:54;25.40;92.80
16958;DHT22;8595;52.542;11.974;2023-05-15T14:20:21;25.80;92.00
16958;DHT22;8595;52.542;11.974;2023-05-15T14:22:49;26.20;91.40
16958;DHT22;8595;52.542;11.974;2023-05-15T14:25:16;26.40;91.20
16958;DHT22;8595;52.542;11.974;2023-05-15T14:27:43;26.40;92.40
16958;DHT22;8595;52.542;11.974;2023-05-15T14:30:10;25.60;93.20
16958;DHT22;8595;52.542;11.974;2023-05-15T14:32:38;25.10;94.10
16958;DHT22;8595;52.542;11.974;2023-05-15T14:35:06;24.70;97.40
16958;DHT22;8595;52.542;11.974;2023-05-15T14:37:33;24.50;96.90
16958;DHT22;8595;52.542;11.974;2023-05-15T14:40:01;24.30;97.00
16958;DHT22;8595;52.542;11.974;2023-05-15T14:42:31;24.20;97.80
16958;DHT22;8595;52.542;11.974;2023-05-15T14:44:58;24.30;97.50
16958;DHT22;8595;52.542;11.974;2023-05-15T14:47:24;24.20;97.50
16958;DHT22;8595;52.542;11.974;2023-05-15T14:49:52;23.70;97.30
16958;DHT22;8595;52.542;11.974;2023-05-15T14:52:19;23.30;97.90
16958;DHT22;8595;52.542;11.974;2023-05-15T14:54:46;23.00;97.90
16958;DHT22;8595;52.542;11.974;2023-05-15T14:57:14;22.80;98.30
16958;DHT22;8595;52.542;11.974;2023-05-15T14:59:44;22.60;98.90
16958;DHT22;8595;52.542;11.974;2023-05-15T15:02:11;22.60;99.20
16958;DHT22;8595;52.542;11.974;2023-05-15T15:04:38;22.40;99.80
16958;DHT22;8595;52.542;11.974;2023-05-15T15:07:05;22.30;99.80
16958;DHT22;8595;52.542;11.974;2023-05-15T15:09:35;22.10;99.90
16958;DHT22;8595;52.542;11.974;2023-05-15T15:12:02;22.30;99.90
16958;DHT22;8595;52.542;11.974;2023-05-15T15:14:31;22.40;99.80
16958;DHT22;8595;52.542;11.974;2023-05-15T15:16:58;22.70;99.90
16958;DHT22;8595;52.542;11.974;2023-05-15T15:19:25;22.70;99.90
16958;DHT22;8595;52.542;11.974;2023-05-15T15:21:52;22.70;99.90
16958;DHT22;8595;52.542;11.974;2023-05-15T15:24:19;22.60;99.90
16958;DHT22;8595;52.542;11.974;2023-05-15T15:26:47;22.50;99.90
16958;DHT22;8595;52.542;11.974;2023-05-15T15:29:14;22.50;99.90
16958;DHT22;8595;52.542;11.974;2023-05-15T15:31:42;22.50;99.90
16958;DHT22;8595;52.542;11.974;2023-05-15T15:34:08;22.40;99.90
16958;DHT22;8595;52.542;11.974;2023-05-15T15:36:35;22.10;99.90
16958;DHT22;8595;52.542;11.974;2023-05-15T15:39:04;21.90;99.90